Archival Weather

Republic

Farmingdale, New York (KFRG)

Report from: Monday, February 19, 2024 1:53 PM EST
Current time: Monday, June 24, 2024 6:59 AM EDT

Current weather – Weather history – Daily summaries
Weather forecast

Temperature3.9°C (39.0°F)
Wind chill-0.3°C (31.4°F)
Dew point-12.8°C (9.0°F)
Winds 11 kts (5.7 m/s, 12.7 mph) West-Northwest (300°)
Wind gusts 19 kts (9.8 m/s, 21.9 mph)
Visibility10 mi. (16.1 km)
Clouds Sky clear
Altimeter30.16 in.Hg (1021 mB)
Relative humidity28 %
Density altitude-1,575 ft. (-480 m)
Sea-level pressure102.1 kPa (1021 mB, 30.16 in.Hg)
Remarks Automated weather observing station without precipitation discriminator
Flight conditions Visual Meteorological Conditions
Raw dataKFRG 191853Z 30011G19KT 10SM CLR 04/M13 A3016 RMK AO1 SLP213 T00391128
An error has occurred. This application may no longer respond until reloaded. Reload 🗙